sensor_id;sensor_type;location;lat;lon;timestamp;P1;durP1;ratioP1;P2;durP2;ratioP2
63906;SDS011;50075;49.484;11.238;2024-01-30T00:02:09;349.08;;;224.98;;
63906;SDS011;50075;49.484;11.238;2024-01-30T00:04:34;504.00;;;239.80;;
63906;SDS011;50075;49.484;11.238;2024-01-30T00:06:59;352.35;;;225.07;;
63906;SDS011;50075;49.484;11.238;2024-01-30T00:09:25;406.40;;;234.48;;
63906;SDS011;50075;49.484;11.238;2024-01-30T00:11:50;374.63;;;242.25;;
63906;SDS011;50075;49.484;11.238;2024-01-30T00:14:16;330.92;;;243.60;;
63906;SDS011;50075;49.484;11.238;2024-01-30T00:16:41;361.13;;;244.25;;
63906;SDS011;50075;49.484;11.238;2024-01-30T00:19:06;377.52;;;229.57;;
63906;SDS011;50075;49.484;11.238;2024-01-30T00:21:33;496.75;;;238.50;;
63906;SDS011;50075;49.484;11.238;2024-01-30T00:23:58;313.33;;;222.40;;
63906;SDS011;50075;49.484;11.238;2024-01-30T00:26:24;367.95;;;222.35;;
63906;SDS011;50075;49.484;11.238;2024-01-30T00:28:49;335.42;;;220.43;;
63906;SDS011;50075;49.484;11.238;2024-01-30T00:31:14;301.55;;;217.30;;
63906;SDS011;50075;49.484;11.238;2024-01-30T00:33:40;555.75;;;249.27;;
63906;SDS011;50075;49.484;11.238;2024-01-30T00:36:06;331.02;;;229.40;;
63906;SDS011;50075;49.484;11.238;2024-01-30T00:38:33;486.08;;;226.30;;
63906;SDS011;50075;49.484;11.238;2024-01-30T00:40:58;378.90;;;226.00;;
63906;SDS011;50075;49.484;11.238;2024-01-30T00:43:23;323.13;;;213.57;;
63906;SDS011;50075;49.484;11.238;2024-01-30T00:45:52;336.10;;;212.50;;
63906;SDS011;50075;49.484;11.238;2024-01-30T00:48:17;338.65;;;204.93;;
63906;SDS011;50075;49.484;11.238;2024-01-30T00:50:43;462.42;;;207.90;;
63906;SDS011;50075;49.484;11.238;2024-01-30T00:53:08;299.08;;;194.13;;
63906;SDS011;50075;49.484;11.238;2024-01-30T00:55:34;458.15;;;226.77;;
63906;SDS011;50075;49.484;11.238;2024-01-30T00:58:00;324.55;;;207.90;;
63906;SDS011;50075;49.484;11.238;2024-01-30T01:00:26;321.38;;;204.77;;
63906;SDS011;50075;49.484;11.238;2024-01-30T01:02:54;380.02;;;208.35;;
63906;SDS011;50075;49.484;11.238;2024-01-30T01:05:20;303.27;;;189.43;;
63906;SDS011;50075;49.484;11.238;2024-01-30T01:07:45;362.92;;;199.95;;
63906;SDS011;50075;49.484;11.238;2024-01-30T01:10:12;416.45;;;208.13;;
63906;SDS011;50075;49.484;11.238;2024-01-30T01:12:38;531.20;;;205.77;;
63906;SDS011;50075;49.484;11.238;2024-01-30T01:15:04;378.73;;;190.27;;
63906;SDS011;50075;49.484;11.238;2024-01-30T01:17:30;450.10;;;194.45;;
63906;SDS011;50075;49.484;11.238;2024-01-30T01:19:56;375.05;;;201.30;;
63906;SDS011;50075;49.484;11.238;2024-01-30T01:22:22;373.30;;;199.93;;
63906;SDS011;50075;49.484;11.238;2024-01-30T01:24:47;417.80;;;212.57;;
63906;SDS011;50075;49.484;11.238;2024-01-30T01:27:13;328.15;;;212.63;;
63906;SDS011;50075;49.484;11.238;2024-01-30T01:29:38;549.97;;;236.73;;
63906;SDS011;50075;49.484;11.238;2024-01-30T01:32:04;429.80;;;219.98;;
63906;SDS011;50075;49.484;11.238;2024-01-30T01:34:29;400.15;;;219.23;;
63906;SDS011;50075;49.484;11.238;2024-01-30T01:36:55;385.80;;;217.00;;
63906;SDS011;50075;49.484;11.238;2024-01-30T01:39:21;450.17;;;225.43;;
63906;SDS011;50075;49.484;11.238;2024-01-30T01:41:48;388.70;;;214.18;;
63906;SDS011;50075;49.484;11.238;2024-01-30T01:44:14;382.52;;;219.63;;
63906;SDS011;50075;49.484;11.238;2024-01-30T01:46:39;512.05;;;236.57;;
63906;SDS011;50075;49.484;11.238;2024-01-30T01:49:05;406.45;;;236.75;;
63906;SDS011;50075;49.484;11.238;2024-01-30T01:51:31;409.90;;;227.35;;
63906;SDS011;50075;49.484;11.238;2024-01-30T01:54:00;433.48;;;229.02;;
63906;SDS011;50075;49.484;11.238;2024-01-30T01:56:28;399.15;;;219.07;;
63906;SDS011;50075;49.484;11.238;2024-01-30T01:58:54;398.10;;;220.00;;
63906;SDS011;50075;49.484;11.238;2024-01-30T02:01:20;387.05;;;218.43;;
63906;SDS011;50075;49.484;11.238;2024-01-30T02:03:46;537.22;;;240.52;;
63906;SDS011;50075;49.484;11.238;2024-01-30T02:06:14;412.13;;;239.68;;
63906;SDS011;50075;49.484;11.238;2024-01-30T02:08:41;508.42;;;227.75;;
63906;SDS011;50075;49.484;11.238;2024-01-30T02:11:07;388.58;;;237.75;;
63906;SDS011;50075;49.484;11.238;2024-01-30T02:13:32;495.67;;;270.98;;
63906;SDS011;50075;49.484;11.238;2024-01-30T02:15:57;407.00;;;233.07;;
63906;SDS011;50075;49.484;11.238;2024-01-30T02:18:23;371.85;;;232.20;;
63906;SDS011;50075;49.484;11.238;2024-01-30T02:20:48;542.00;;;244.60;;
63906;SDS011;50075;49.484;11.238;2024-01-30T02:23:17;408.00;;;335.65;;
63906;SDS011;50075;49.484;11.238;2024-01-30T02:25:44;500.20;;;247.60;;
63906;SDS011;50075;49.484;11.238;2024-01-30T02:28:10;426.27;;;238.98;;
63906;SDS011;50075;49.484;11.238;2024-01-30T02:30:37;551.08;;;353.38;;
63906;SDS011;50075;49.484;11.238;2024-01-30T02:33:02;496.02;;;442.60;;
63906;SDS011;50075;49.484;11.238;2024-01-30T02:35:28;564.28;;;472.13;;
63906;SDS011;50075;49.484;11.238;2024-01-30T02:37:53;391.95;;;237.70;;
63906;SDS011;50075;49.484;11.238;2024-01-30T02:40:18;388.25;;;251.80;;
63906;SDS011;50075;49.484;11.238;2024-01-30T02:42:44;578.47;;;253.10;;
63906;SDS011;50075;49.484;11.238;2024-01-30T02:45:09;378.88;;;247.60;;
63906;SDS011;50075;49.484;11.238;2024-01-30T02:47:35;465.52;;;233.05;;
63906;SDS011;50075;49.484;11.238;2024-01-30T02:50:01;441.08;;;253.85;;
63906;SDS011;50075;49.484;11.238;2024-01-30T02:52:26;404.15;;;245.10;;
63906;SDS011;50075;49.484;11.238;2024-01-30T02:54:52;405.88;;;236.63;;
63906;SDS011;50075;49.484;11.238;2024-01-30T02:57:17;425.63;;;240.30;;
63906;SDS011;50075;49.484;11.238;2024-01-30T02:59:42;538.30;;;239.30;;
63906;SDS011;50075;49.484;11.238;2024-01-30T03:02:07;379.08;;;239.23;;
63906;SDS011;50075;49.484;11.238;2024-01-30T03:04:33;429.30;;;240.73;;
63906;SDS011;50075;49.484;11.238;2024-01-30T03:06:58;378.30;;;234.93;;
63906;SDS011;50075;49.484;11.238;2024-01-30T03:09:23;406.60;;;230.70;;
63906;SDS011;50075;49.484;11.238;2024-01-30T03:11:49;517.55;;;244.52;;
63906;SDS011;50075;49.484;11.238;2024-01-30T03:14:14;416.33;;;225.27;;
63906;SDS011;50075;49.484;11.238;2024-01-30T03:16:39;507.75;;;225.88;;
63906;SDS011;50075;49.484;11.238;2024-01-30T03:19:06;429.50;;;229.73;;
63906;SDS011;50075;49.484;11.238;2024-01-30T03:21:32;442.30;;;234.73;;
63906;SDS011;50075;49.484;11.238;2024-01-30T03:23:58;384.25;;;233.70;;
63906;SDS011;50075;49.484;11.238;2024-01-30T03:26:24;413.70;;;238.77;;
63906;SDS011;50075;49.484;11.238;2024-01-30T03:28:49;526.42;;;243.90;;
63906;SDS011;50075;49.484;11.238;2024-01-30T03:31:15;435.75;;;281.88;;
63906;SDS011;50075;49.484;11.238;2024-01-30T03:33:41;531.92;;;256.40;;
63906;SDS011;50075;49.484;11.238;2024-01-30T03:36:07;430.45;;;248.98;;
63906;SDS011;50075;49.484;11.238;2024-01-30T03:38:33;438.52;;;249.32;;
63906;SDS011;50075;49.484;11.238;2024-01-30T03:40:59;424.52;;;245.68;;
63906;SDS011;50075;49.484;11.238;2024-01-30T03:43:25;401.65;;;222.95;;
63906;SDS011;50075;49.484;11.238;2024-01-30T03:45:50;534.17;;;235.13;;
63906;SDS011;50075;49.484;11.238;2024-01-30T03:48:16;411.80;;;229.10;;
63906;SDS011;50075;49.484;11.238;2024-01-30T03:50:41;552.70;;;237.95;;
63906;SDS011;50075;49.484;11.238;2024-01-30T03:53:06;406.63;;;233.80;;
63906;SDS011;50075;49.484;11.238;2024-01-30T03:55:32;401.52;;;232.60;;
63906;SDS011;50075;49.484;11.238;2024-01-30T03:57:57;390.45;;;230.30;;
63906;SDS011;50075;49.484;11.238;2024-01-30T04:00:22;381.55;;;225.93;;
63906;SDS011;50075;49.484;11.238;2024-01-30T04:02:48;548.47;;;248.88;;
63906;SDS011;50075;49.484;11.238;2024-01-30T04:05:13;404.50;;;238.65;;
63906;SDS011;50075;49.484;11.238;2024-01-30T04:07:38;453.30;;;235.88;;
63906;SDS011;50075;49.484;11.238;2024-01-30T04:10:04;431.70;;;225.70;;
63906;SDS011;50075;49.484;11.238;2024-01-30T04:12:32;430.73;;;234.30;;
63906;SDS011;50075;49.484;11.238;2024-01-30T04:14:58;408.63;;;233.80;;
63906;SDS011;50075;49.484;11.238;2024-01-30T04:17:23;408.08;;;238.18;;
63906;SDS011;50075;49.484;11.238;2024-01-30T04:19:48;553.33;;;248.15;;
63906;SDS011;50075;49.484;11.238;2024-01-30T04:22:14;422.17;;;240.45;;
63906;SDS011;50075;49.484;11.238;2024-01-30T04:24:39;443.33;;;249.20;;
63906;SDS011;50075;49.484;11.238;2024-01-30T04:27:04;442.15;;;250.30;;
63906;SDS011;50075;49.484;11.238;2024-01-30T04:29:30;439.45;;;256.15;;
63906;SDS011;50075;49.484;11.238;2024-01-30T04:31:57;531.97;;;272.83;;
63906;SDS011;50075;49.484;11.238;2024-01-30T04:34:22;429.75;;;262.25;;
63906;SDS011;50075;49.484;11.238;2024-01-30T04:36:48;506.15;;;270.73;;
63906;SDS011;50075;49.484;11.238;2024-01-30T04:39:13;451.40;;;249.90;;
63906;SDS011;50075;49.484;11.238;2024-01-30T04:41:38;447.35;;;253.50;;
63906;SDS011;50075;49.484;11.238;2024-01-30T04:44:03;388.27;;;253.95;;
63906;SDS011;50075;49.484;11.238;2024-01-30T04:46:29;426.33;;;254.63;;
63906;SDS011;50075;49.484;11.238;2024-01-30T04:48:54;558.25;;;257.55;;
63906;SDS011;50075;49.484;11.238;2024-01-30T04:51:19;415.17;;;249.35;;
63906;SDS011;50075;49.484;11.238;2024-01-30T04:53:45;471.60;;;239.65;;
63906;SDS011;50075;49.484;11.238;2024-01-30T04:56:10;413.17;;;248.20;;
63906;SDS011;50075;49.484;11.238;2024-01-30T04:58:36;434.15;;;255.07;;
63906;SDS011;50075;49.484;11.238;2024-01-30T05:01:01;418.05;;;246.73;;
63906;SDS011;50075;49.484;11.238;2024-01-30T05:03:27;417.60;;;242.43;;
63906;SDS011;50075;49.484;11.238;2024-01-30T05:05:52;532.30;;;252.25;;
63906;SDS011;50075;49.484;11.238;2024-01-30T05:08:18;405.75;;;248.65;;
63906;SDS011;50075;49.484;11.238;2024-01-30T05:10:43;468.33;;;252.80;;
63906;SDS011;50075;49.484;11.238;2024-01-30T05:13:09;413.70;;;250.50;;
63906;SDS011;50075;49.484;11.238;2024-01-30T05:15:35;424.45;;;253.32;;
63906;SDS011;50075;49.484;11.238;2024-01-30T05:18:00;414.98;;;258.52;;
63906;SDS011;50075;49.484;11.238;2024-01-30T05:20:25;455.58;;;254.23;;
63906;SDS011;50075;49.484;11.238;2024-01-30T05:22:53;531.25;;;260.88;;
63906;SDS011;50075;49.484;11.238;2024-01-30T05:25:18;419.67;;;253.55;;
63906;SDS011;50075;49.484;11.238;2024-01-30T05:27:44;433.95;;;256.50;;
63906;SDS011;50075;49.484;11.238;2024-01-30T05:30:09;451.95;;;259.92;;
63906;SDS011;50075;49.484;11.238;2024-01-30T05:32:35;453.23;;;255.93;;
63906;SDS011;50075;49.484;11.238;2024-01-30T05:35:00;544.58;;;263.10;;
63906;SDS011;50075;49.484;11.238;2024-01-30T05:37:26;415.55;;;261.45;;
63906;SDS011;50075;49.484;11.238;2024-01-30T05:39:51;551.53;;;272.08;;
63906;SDS011;50075;49.484;11.238;2024-01-30T05:42:16;425.67;;;274.05;;
63906;SDS011;50075;49.484;11.238;2024-01-30T05:44:42;418.77;;;267.90;;
63906;SDS011;50075;49.484;11.238;2024-01-30T05:47:07;417.85;;;267.17;;
63906;SDS011;50075;49.484;11.238;2024-01-30T05:49:33;470.90;;;264.10;;
63906;SDS011;50075;49.484;11.238;2024-01-30T05:51:59;544.72;;;280.35;;
63906;SDS011;50075;49.484;11.238;2024-01-30T05:54:25;421.85;;;273.50;;
63906;SDS011;50075;49.484;11.238;2024-01-30T05:56:50;579.13;;;283.50;;
63906;SDS011;50075;49.484;11.238;2024-01-30T05:59:16;453.95;;;275.70;;
63906;SDS011;50075;49.484;11.238;2024-01-30T06:01:45;428.60;;;279.30;;
63906;SDS011;50075;49.484;11.238;2024-01-30T06:04:11;453.17;;;279.45;;
63906;SDS011;50075;49.484;11.238;2024-01-30T06:06:37;440.20;;;268.63;;
63906;SDS011;50075;49.484;11.238;2024-01-30T06:09:02;553.45;;;286.85;;
63906;SDS011;50075;49.484;11.238;2024-01-30T06:11:27;469.23;;;271.98;;
63906;SDS011;50075;49.484;11.238;2024-01-30T06:13:53;522.70;;;276.38;;
63906;SDS011;50075;49.484;11.238;2024-01-30T06:16:18;405.67;;;265.65;;
63906;SDS011;50075;49.484;11.238;2024-01-30T06:18:46;438.52;;;266.13;;
63906;SDS011;50075;49.484;11.238;2024-01-30T06:21:11;427.25;;;265.70;;
63906;SDS011;50075;49.484;11.238;2024-01-30T06:23:36;458.13;;;275.83;;
63906;SDS011;50075;49.484;11.238;2024-01-30T06:26:02;563.47;;;279.65;;
63906;SDS011;50075;49.484;11.238;2024-01-30T06:28:27;429.33;;;268.15;;
63906;SDS011;50075;49.484;11.238;2024-01-30T06:30:52;542.45;;;286.35;;
63906;SDS011;50075;49.484;11.238;2024-01-30T06:34:01;557.72;;;284.52;;
63906;SDS011;50075;49.484;11.238;2024-01-30T06:36:26;449.13;;;278.58;;
63906;SDS011;50075;49.484;11.238;2024-01-30T06:38:52;565.83;;;292.92;;
63906;SDS011;50075;49.484;11.238;2024-01-30T06:41:17;450.67;;;285.23;;
63906;SDS011;50075;49.484;11.238;2024-01-30T06:43:42;429.42;;;283.38;;
63906;SDS011;50075;49.484;11.238;2024-01-30T06:46:10;423.52;;;272.20;;
63906;SDS011;50075;49.484;11.238;2024-01-30T06:48:35;462.10;;;280.67;;
63906;SDS011;50075;49.484;11.238;2024-01-30T06:51:00;515.38;;;276.23;;
63906;SDS011;50075;49.484;11.238;2024-01-30T06:53:26;416.35;;;271.55;;
63906;SDS011;50075;49.484;11.238;2024-01-30T06:55:51;523.67;;;286.42;;
63906;SDS011;50075;49.484;11.238;2024-01-30T06:58:17;445.48;;;276.52;;
63906;SDS011;50075;49.484;11.238;2024-01-30T07:00:42;438.70;;;279.80;;
63906;SDS011;50075;49.484;11.238;2024-01-30T07:03:07;441.00;;;283.70;;
63906;SDS011;50075;49.484;11.238;2024-01-30T07:05:33;428.50;;;273.50;;
63906;SDS011;50075;49.484;11.238;2024-01-30T07:07:58;487.30;;;277.65;;
63906;SDS011;50075;49.484;11.238;2024-01-30T07:10:23;413.55;;;265.40;;
63906;SDS011;50075;49.484;11.238;2024-01-30T07:12:48;478.30;;;273.67;;
63906;SDS011;50075;49.484;11.238;2024-01-30T07:15:14;398.20;;;257.35;;
63906;SDS011;50075;49.484;11.238;2024-01-30T07:17:42;456.10;;;268.35;;
63906;SDS011;50075;49.484;11.238;2024-01-30T07:20:07;490.30;;;273.88;;
63906;SDS011;50075;49.484;11.238;2024-01-30T07:22:34;445.73;;;271.17;;
63906;SDS011;50075;49.484;11.238;2024-01-30T07:24:59;461.15;;;288.52;;
63906;SDS011;50075;49.484;11.238;2024-01-30T07:27:25;473.85;;;274.73;;
63906;SDS011;50075;49.484;11.238;2024-01-30T07:29:50;449.63;;;283.33;;
63906;SDS011;50075;49.484;11.238;2024-01-30T07:32:15;441.58;;;285.67;;
63906;SDS011;50075;49.484;11.238;2024-01-30T07:34:41;488.33;;;285.88;;
63906;SDS011;50075;49.484;11.238;2024-01-30T07:37:06;516.55;;;297.80;;
63906;SDS011;50075;49.484;11.238;2024-01-30T07:39:33;498.90;;;308.50;;
63906;SDS011;50075;49.484;11.238;2024-01-30T07:41:59;520.75;;;306.35;;
63906;SDS011;50075;49.484;11.238;2024-01-30T07:44:24;484.98;;;310.50;;
63906;SDS011;50075;49.484;11.238;2024-01-30T07:46:49;482.38;;;294.42;;
63906;SDS011;50075;49.484;11.238;2024-01-30T07:49:15;538.50;;;309.23;;
63906;SDS011;50075;49.484;11.238;2024-01-30T07:51:40;514.97;;;315.30;;
63906;SDS011;50075;49.484;11.238;2024-01-30T07:54:05;539.50;;;325.38;;
63906;SDS011;50075;49.484;11.238;2024-01-30T07:56:31;517.85;;;310.23;;
63906;SDS011;50075;49.484;11.238;2024-01-30T07:58:56;561.95;;;326.67;;
63906;SDS011;50075;49.484;11.238;2024-01-30T08:01:21;503.77;;;326.13;;
63906;SDS011;50075;49.484;11.238;2024-01-30T08:03:47;528.92;;;334.95;;
63906;SDS011;50075;49.484;11.238;2024-01-30T08:06:12;556.47;;;343.63;;
63906;SDS011;50075;49.484;11.238;2024-01-30T08:08:37;547.22;;;342.80;;
63906;SDS011;50075;49.484;11.238;2024-01-30T08:11:03;554.92;;;337.33;;
63906;SDS011;50075;49.484;11.238;2024-01-30T08:13:28;534.88;;;286.45;;
63906;SDS011;50075;49.484;11.238;2024-01-30T08:15:53;541.70;;;295.08;;
63906;SDS011;50075;49.484;11.238;2024-01-30T08:18:19;485.33;;;288.50;;
63906;SDS011;50075;49.484;11.238;2024-01-30T08:20:44;520.95;;;289.67;;
63906;SDS011;50075;49.484;11.238;2024-01-30T08:23:09;507.08;;;286.40;;
63906;SDS011;50075;49.484;11.238;2024-01-30T08:25:35;536.47;;;298.98;;
63906;SDS011;50075;49.484;11.238;2024-01-30T08:28:01;574.70;;;297.50;;
63906;SDS011;50075;49.484;11.238;2024-01-30T08:30:27;527.30;;;301.98;;
63906;SDS011;50075;49.484;11.238;2024-01-30T08:32:52;504.08;;;286.80;;
63906;SDS011;50075;49.484;11.238;2024-01-30T08:35:17;539.97;;;298.73;;
63906;SDS011;50075;49.484;11.238;2024-01-30T08:37:43;526.63;;;305.02;;
63906;SDS011;50075;49.484;11.238;2024-01-30T08:40:08;573.53;;;311.77;;
63906;SDS011;50075;49.484;11.238;2024-01-30T08:42:34;544.28;;;324.10;;
63906;SDS011;50075;49.484;11.238;2024-01-30T08:44:59;558.35;;;318.77;;
63906;SDS011;50075;49.484;11.238;2024-01-30T08:47:24;529.47;;;312.73;;
63906;SDS011;50075;49.484;11.238;2024-01-30T08:49:50;532.10;;;302.92;;
63906;SDS011;50075;49.484;11.238;2024-01-30T08:52:16;516.83;;;313.95;;
63906;SDS011;50075;49.484;11.238;2024-01-30T08:54:41;552.45;;;309.45;;
63906;SDS011;50075;49.484;11.238;2024-01-30T08:57:06;525.58;;;306.42;;
63906;SDS011;50075;49.484;11.238;2024-01-30T08:59:32;552.13;;;307.83;;
63906;SDS011;50075;49.484;11.238;2024-01-30T09:01:57;570.08;;;296.45;;
63906;SDS011;50075;49.484;11.238;2024-01-30T09:04:24;446.42;;;272.08;;
63906;SDS011;50075;49.484;11.238;2024-01-30T09:06:49;452.15;;;281.92;;
63906;SDS011;50075;49.484;11.238;2024-01-30T09:09:15;518.80;;;287.98;;
63906;SDS011;50075;49.484;11.238;2024-01-30T09:11:40;467.08;;;278.60;;
63906;SDS011;50075;49.484;11.238;2024-01-30T09:14:06;536.92;;;286.08;;
63906;SDS011;50075;49.484;11.238;2024-01-30T09:16:31;483.38;;;282.52;;
63906;SDS011;50075;49.484;11.238;2024-01-30T09:18:56;504.42;;;275.27;;
63906;SDS011;50075;49.484;11.238;2024-01-30T09:21:22;477.02;;;271.65;;
63906;SDS011;50075;49.484;11.238;2024-01-30T09:23:48;473.75;;;274.20;;
63906;SDS011;50075;49.484;11.238;2024-01-30T09:26:13;442.65;;;256.67;;
63906;SDS011;50075;49.484;11.238;2024-01-30T09:28:38;503.90;;;269.25;;
63906;SDS011;50075;49.484;11.238;2024-01-30T09:31:04;471.23;;;278.50;;
63906;SDS011;50075;49.484;11.238;2024-01-30T09:33:29;476.73;;;279.00;;
63906;SDS011;50075;49.484;11.238;2024-01-30T09:35:54;515.72;;;274.70;;
63906;SDS011;50075;49.484;11.238;2024-01-30T09:38:20;456.17;;;254.00;;
63906;SDS011;50075;49.484;11.238;2024-01-30T09:40:46;475.00;;;256.88;;
63906;SDS011;50075;49.484;11.238;2024-01-30T09:43:18;492.38;;;272.70;;
63906;SDS011;50075;49.484;11.238;2024-01-30T09:45:47;489.70;;;268.52;;
63906;SDS011;50075;49.484;11.238;2024-01-30T09:48:14;478.95;;;281.00;;
63906;SDS011;50075;49.484;11.238;2024-01-30T09:50:40;514.45;;;273.25;;
63906;SDS011;50075;49.484;11.238;2024-01-30T09:53:06;542.47;;;267.92;;
63906;SDS011;50075;49.484;11.238;2024-01-30T09:55:33;489.08;;;275.33;;
63906;SDS011;50075;49.484;11.238;2024-01-30T09:58:00;492.45;;;255.35;;
63906;SDS011;50075;49.484;11.238;2024-01-30T10:00:26;475.30;;;255.15;;
63906;SDS011;50075;49.484;11.238;2024-01-30T10:02:52;498.60;;;269.92;;
63906;SDS011;50075;49.484;11.238;2024-01-30T10:05:18;461.83;;;266.45;;
63906;SDS011;50075;49.484;11.238;2024-01-30T10:07:53;473.02;;;262.63;;
63906;SDS011;50075;49.484;11.238;2024-01-30T10:10:23;480.48;;;252.98;;
63906;SDS011;50075;49.484;11.238;2024-01-30T10:12:49;459.73;;;253.80;;
63906;SDS011;50075;49.484;11.238;2024-01-30T10:15:14;469.80;;;239.77;;
63906;SDS011;50075;49.484;11.238;2024-01-30T10:17:40;461.00;;;227.68;;
63906;SDS011;50075;49.484;11.238;2024-01-30T10:20:05;532.65;;;241.70;;
63906;SDS011;50075;49.484;11.238;2024-01-30T10:22:31;471.58;;;266.30;;
63906;SDS011;50075;49.484;11.238;2024-01-30T10:24:57;497.13;;;251.75;;
63906;SDS011;50075;49.484;11.238;2024-01-30T10:27:24;449.10;;;240.02;;
63906;SDS011;50075;49.484;11.238;2024-01-30T10:29:52;469.58;;;241.77;;
63906;SDS011;50075;49.484;11.238;2024-01-30T10:32:18;481.30;;;241.13;;
63906;SDS011;50075;49.484;11.238;2024-01-30T10:34:44;447.92;;;219.95;;
63906;SDS011;50075;49.484;11.238;2024-01-30T10:37:10;504.48;;;223.18;;
63906;SDS011;50075;49.484;11.238;2024-01-30T10:39:42;452.23;;;217.35;;
63906;SDS011;50075;49.484;11.238;2024-01-30T10:42:13;525.65;;;231.85;;
63906;SDS011;50075;49.484;11.238;2024-01-30T10:47:30;497.35;;;235.70;;
63906;SDS011;50075;49.484;11.238;2024-01-30T10:49:56;507.65;;;245.18;;
63906;SDS011;50075;49.484;11.238;2024-01-30T10:52:24;489.20;;;240.48;;
63906;SDS011;50075;49.484;11.238;2024-01-30T10:54:51;498.40;;;242.05;;
63906;SDS011;50075;49.484;11.238;2024-01-30T10:57:17;510.45;;;221.63;;
63906;SDS011;50075;49.484;11.238;2024-01-30T10:59:43;502.25;;;235.30;;
63906;SDS011;50075;49.484;11.238;2024-01-30T11:02:10;578.53;;;249.38;;
63906;SDS011;50075;49.484;11.238;2024-01-30T11:04:40;555.97;;;247.70;;
63906;SDS011;50075;49.484;11.238;2024-01-30T11:07:18;587.35;;;248.15;;
63906;SDS011;50075;49.484;11.238;2024-01-30T11:09:51;527.85;;;224.77;;
63906;SDS011;50075;49.484;11.238;2024-01-30T11:12:21;454.10;;;227.48;;
63906;SDS011;50075;49.484;11.238;2024-01-30T11:14:49;518.42;;;237.85;;
63906;SDS011;50075;49.484;11.238;2024-01-30T11:17:15;579.15;;;246.27;;
63906;SDS011;50075;49.484;11.238;2024-01-30T11:19:41;523.45;;;243.32;;
63906;SDS011;50075;49.484;11.238;2024-01-30T11:22:07;584.90;;;242.88;;
63906;SDS011;50075;49.484;11.238;2024-01-30T11:24:39;521.15;;;243.38;;
63906;SDS011;50075;49.484;11.238;2024-01-30T11:27:10;592.58;;;243.20;;
63906;SDS011;50075;49.484;11.238;2024-01-30T11:29:36;567.67;;;244.00;;
63906;SDS011;50075;49.484;11.238;2024-01-30T11:32:01;533.65;;;241.68;;
63906;SDS011;50075;49.484;11.238;2024-01-30T11:34:27;526.60;;;248.27;;
63906;SDS011;50075;49.484;11.238;2024-01-30T11:36:56;555.70;;;245.77;;
63906;SDS011;50075;49.484;11.238;2024-01-30T11:39:27;509.90;;;231.88;;
63906;SDS011;50075;49.484;11.238;2024-01-30T11:41:54;494.10;;;230.25;;
63906;SDS011;50075;49.484;11.238;2024-01-30T11:44:21;514.20;;;237.70;;
63906;SDS011;50075;49.484;11.238;2024-01-30T11:46:47;541.58;;;247.38;;
63906;SDS011;50075;49.484;11.238;2024-01-30T11:49:13;605.33;;;249.90;;
63906;SDS011;50075;49.484;11.238;2024-01-30T11:51:38;580.38;;;249.75;;
63906;SDS011;50075;49.484;11.238;2024-01-30T11:54:04;588.28;;;252.68;;
63906;SDS011;50075;49.484;11.238;2024-01-30T11:56:29;521.60;;;243.38;;
63906;SDS011;50075;49.484;11.238;2024-01-30T11:58:55;567.20;;;246.43;;
63906;SDS011;50075;49.484;11.238;2024-01-30T12:01:20;526.38;;;242.88;;
63906;SDS011;50075;49.484;11.238;2024-01-30T12:03:49;532.30;;;239.50;;
63906;SDS011;50075;49.484;11.238;2024-01-30T12:06:15;634.03;;;259.17;;
63906;SDS011;50075;49.484;11.238;2024-01-30T12:08:41;545.95;;;246.18;;
63906;SDS011;50075;49.484;11.238;2024-01-30T12:11:07;606.92;;;247.15;;
63906;SDS011;50075;49.484;11.238;2024-01-30T12:13:32;607.25;;;257.63;;
63906;SDS011;50075;49.484;11.238;2024-01-30T12:15:58;579.33;;;263.10;;
63906;SDS011;50075;49.484;11.238;2024-01-30T12:18:23;558.85;;;257.63;;
63906;SDS011;50075;49.484;11.238;2024-01-30T12:21:01;613.92;;;265.90;;
63906;SDS011;50075;49.484;11.238;2024-01-30T12:23:27;564.20;;;267.30;;
63906;SDS011;50075;49.484;11.238;2024-01-30T12:25:53;583.85;;;268.58;;
63906;SDS011;50075;49.484;11.238;2024-01-30T12:28:19;627.40;;;275.38;;
63906;SDS011;50075;49.484;11.238;2024-01-30T12:30:45;597.20;;;272.48;;
63906;SDS011;50075;49.484;11.238;2024-01-30T12:33:17;658.72;;;265.08;;
63906;SDS011;50075;49.484;11.238;2024-01-30T12:35:47;570.55;;;255.48;;
63906;SDS011;50075;49.484;11.238;2024-01-30T12:38:13;576.22;;;257.85;;
63906;SDS011;50075;49.484;11.238;2024-01-30T12:40:39;630.92;;;268.17;;
63906;SDS011;50075;49.484;11.238;2024-01-30T12:43:05;594.05;;;276.13;;
63906;SDS011;50075;49.484;11.238;2024-01-30T12:45:30;603.95;;;285.10;;
63906;SDS011;50075;49.484;11.238;2024-01-30T12:47:55;630.10;;;268.58;;
63906;SDS011;50075;49.484;11.238;2024-01-30T12:50:21;689.60;;;288.85;;
63906;SDS011;50075;49.484;11.238;2024-01-30T12:52:47;576.25;;;269.13;;
63906;SDS011;50075;49.484;11.238;2024-01-30T12:55:13;694.33;;;282.25;;
63906;SDS011;50075;49.484;11.238;2024-01-30T12:57:38;613.78;;;272.50;;
63906;SDS011;50075;49.484;11.238;2024-01-30T13:00:04;629.25;;;280.95;;
63906;SDS011;50075;49.484;11.238;2024-01-30T13:02:33;619.63;;;277.75;;
63906;SDS011;50075;49.484;11.238;2024-01-30T13:05:02;597.83;;;275.95;;
63906;SDS011;50075;49.484;11.238;2024-01-30T13:07:27;597.45;;;275.58;;
63906;SDS011;50075;49.484;11.238;2024-01-30T13:09:53;636.00;;;278.20;;
63906;SDS011;50075;49.484;11.238;2024-01-30T13:12:18;652.90;;;283.63;;
63906;SDS011;50075;49.484;11.238;2024-01-30T13:14:43;610.33;;;282.48;;
63906;SDS011;50075;49.484;11.238;2024-01-30T13:17:09;716.10;;;310.10;;
63906;SDS011;50075;49.484;11.238;2024-01-30T13:19:34;643.13;;;305.98;;
63906;SDS011;50075;49.484;11.238;2024-01-30T13:21:59;632.17;;;305.80;;
63906;SDS011;50075;49.484;11.238;2024-01-30T13:24:25;654.72;;;319.63;;
63906;SDS011;50075;49.484;11.238;2024-01-30T13:26:50;620.00;;;298.27;;
63906;SDS011;50075;49.484;11.238;2024-01-30T13:29:16;722.53;;;325.75;;
63906;SDS011;50075;49.484;11.238;2024-01-30T13:31:41;690.53;;;331.75;;
63906;SDS011;50075;49.484;11.238;2024-01-30T13:34:06;656.67;;;302.92;;
63906;SDS011;50075;49.484;11.238;2024-01-30T13:36:32;631.20;;;317.38;;
63906;SDS011;50075;49.484;11.238;2024-01-30T13:38:57;637.75;;;295.98;;
63906;SDS011;50075;49.484;11.238;2024-01-30T13:41:23;705.83;;;310.13;;